Latest Weather Observations for Holsworthy

IDN60901

Issued at 4:51 pm EDT Sunday 26 February 2017 (issued every 10 minutes, with the page automatically refreshed every 10 minutes)

About weather observations | Map of Sydney area stations | Latest observations for Sydney area | Other Formats
Station Details ID: 066161 Name: HOLSWORTHY AERODROME AWS Lat: -33.99 Lon: 150.95 Height: 68.16 m
Data from the previous 72 hours. | See also: Recent months at Holsworthy
Date/Time
EDT
Temp
°C
App
Temp
°C
Dew
Point
°C
Rel
Hum
%
Delta-T
°C
Wind Press
QNH
hPa
Press
MSL
hPa
Rain since
9am
mm
Dir  Spd
km/h
Gust
km/h
Spd
kts
Gust
kts
26/04:30pm 23.6 20.7 12.9 51 6.2 SSW 20 32 11 17 1021.6 1021.3 0.0
26/04:00pm 23.9 20.6 14.0 54 5.8 S 24 39 13 21 1021.6 1021.3 0.0
26/03:30pm 23.4 20.6 13.3 53 5.9 SSE 20 30 11 16 1021.8 1021.5 0.0
26/03:00pm 23.4 20.4 13.6 54 5.7 S 22 32 12 17 1022.2 1021.9 0.0
26/02:30pm 22.7 19.6 13.5 56 5.3 S 22 37 12 20 1022.4 1022.1 0.0
26/02:00pm 23.1 19.7 13.8 55 5.4 SSE 24 37 13 20 1022.5 1022.2 0.0
26/01:30pm 23.8 22.4 15.6 60 5.0 S 17 26 9 14 1022.7 1022.4 0.0
26/01:00pm 22.3 19.9 14.4 61 4.6 SSE 20 28 11 15 1023.1 1022.8 0.0
26/12:30pm 22.2 20.1 13.5 57 5.0 SSE 17 30 9 16 1023.3 1023.0 0.0
26/12:00pm 21.8 18.9 13.9 61 4.6 SSE 22 33 12 18 1023.5 1023.2 0.0
26/11:30am 21.5 19.1 13.9 62 4.4 S 19 28 10 15 1023.4 1023.1 0.0
26/11:00am 21.0 19.6 15.5 71 3.3 S 17 30 9 16 1023.5 1023.2 0.0
26/10:30am 21.2 19.6 15.1 68 3.6 SSE 17 26 9 14 1023.5 1023.2 0.0
26/10:00am 20.9 19.3 15.0 69 3.5 S 17 22 9 12 1023.2 1022.9 0.0
26/09:30am 21.0 19.4 15.1 69 3.5 S 17 28 9 15 1022.9 1022.6 0.0
26/09:00am 21.4 21.1 15.5 69 3.5 SSE 11 17 6 9 1022.5 1022.2 35.4
26/08:30am 19.8 20.1 16.1 79 2.2 SSW 9 11 5 6 1022.1 1021.8 35.4
26/08:00am 17.7 17.7 16.2 91 0.9 SW 11 15 6 8 1021.8 1021.5 35.4
26/07:30am 17.3 16.8 16.0 92 0.8 SW 13 17 7 9 1021.7 1021.4 35.4
26/07:00am 17.5 18.2 16.0 91 0.9 SW 7 11 4 6 1021.5 1021.2 35.4
26/06:30am 18.0 18.2 15.8 87 1.3 SSE 9 15 5 8 1021.2 1020.9 35.4
26/06:00am 17.6 15.7 15.8 89 1.1 SSE 20 30 11 16 1020.8 1020.5 35.4
26/05:30am 17.6 18.2 16.8 95 0.5 WSW 9 11 5 6 1020.9 1020.6 35.4
26/05:00am 17.9 18.5 16.9 94 0.6 SSW 9 11 5 6 1020.5 1020.2 35.0
26/04:30am 17.8 18.4 16.7 93 0.7 S 9 15 5 8 1020.3 1020.0 34.6
26/04:15am 17.7 17.9 16.7 94 0.6 S 11 17 6 9 1020.3 1020.0 34.0
26/04:00am 17.8 18.5 17.0 95 0.5 SW 9 13 5 7 1020.3 1020.0 33.4
26/03:30am 18.2 17.4 17.0 93 0.7 ESE 17 24 9 13 1020.4 1020.1 30.2
26/03:15am 17.9 16.5 16.9 94 0.6 SE 20 32 11 17 1020.4 1020.1 27.0
26/03:00am 17.9 18.7 17.3 96 0.4 SW 9 22 5 12 1020.5 1020.2 21.2
26/02:38am 17.9 19.2 17.1 95 0.5 SW 6 7 3 4 1020.4 1020.1 19.4
26/02:30am 18.0 20.1 17.2 95 0.5 SSW 2 7 1 4 1020.5 1020.2 19.0
26/02:00am 18.0 18.7 17.0 94 0.6 SSW 9 15 5 8 1020.4 1020.1 14.6
26/01:30am 18.5 21.1 17.5 94 0.6 CALM 0 0 0 0 1020.7 1020.4 5.2
26/01:00am 18.7 18.9 17.7 94 0.6 SE 13 19 7 10 1020.9 1020.6 1.4
26/12:49am 18.7 20.1 17.9 95 0.5 S 7 9 4 5 1020.8 1020.5 0.8
26/12:30am 18.4 19.6 17.4 94 0.6 SW 7 11 4 6 1020.8 1020.5 0.4
26/12:00am 18.0 18.6 16.9 93 0.7 SW 9 15 5 8 1020.6 1020.3 0.4
 
Date/Time
EDT
Temp
°C
App
Temp
°C
Dew
Point
°C
Rel
Hum
%
Delta-T
°C
Wind Press
QNH
hPa
Press
MSL
hPa
Rain since
9am
mm
Dir  Spd
km/h
Gust
km/h
Spd
kts
Gust
kts
25/11:30pm 18.2 19.1 16.7 91 0.9 SW 7 9 4 5 1020.7 1020.4 0.4
25/11:12pm 18.4 19.0 16.9 91 0.9 SSW 9 17 5 9 1020.8 1020.5 0.4
25/11:00pm 18.4 18.2 16.7 90 1.0 SSW 13 19 7 10 1020.9 1020.6 0.4
25/10:52pm 18.5 18.7 16.7 89 1.1 SSW 11 17 6 9 1020.8 1020.5 0.2
25/10:30pm 19.3 18.8 15.8 80 2.1 SW 13 17 7 9 1020.9 1020.6 0.0
25/10:00pm 19.3 19.3 15.2 77 2.4 SW 9 13 5 7 1020.9 1020.6 0.0
25/09:30pm 19.4 19.9 15.1 76 2.5 SW 6 7 3 4 1020.6 1020.3 0.0
25/09:00pm 19.5 19.8 15.0 75 2.6 S 7 9 4 5 1020.6 1020.3 0.0
25/08:30pm 19.7 19.7 15.1 75 2.7 SW 9 17 5 9 1020.6 1020.3 0.0
25/08:00pm 19.7 18.9 15.1 75 2.7 SSW 13 17 7 9 1020.5 1020.2 0.0
25/07:30pm 19.5 19.1 15.2 76 2.5 SSW 11 17 6 9 1020.5 1020.2 0.0
25/07:00pm 19.5 16.9 15.0 75 2.6 S 22 33 12 18 1020.1 1019.8 0.0
25/06:30pm 20.2 18.0 15.0 72 3.1 SSE 20 33 11 18 1019.9 1019.6 0.0
25/06:00pm 20.5 18.8 14.8 70 3.3 S 17 24 9 13 1019.9 1019.6 0.0
25/05:30pm 20.6 18.7 15.2 71 3.2 S 19 24 10 13 1020.2 1019.9 0.0
25/05:00pm 20.5 18.9 15.1 71 3.2 S 17 24 9 13 1020.2 1019.9 0.0
25/04:30pm 20.7 18.6 14.8 69 3.5 S 19 30 10 16 1020.2 1019.9 0.0
25/04:00pm 21.7 19.8 15.1 66 3.9 S 19 28 10 15 1020.2 1019.9 0.0
25/03:30pm 21.1 19.5 15.0 68 3.6 S 17 28 9 15 1020.4 1020.1 0.0
25/03:00pm 21.0 18.8 14.9 68 3.6 S 20 30 11 16 1020.6 1020.3 0.0
25/02:30pm 21.1 19.5 15.0 68 3.6 S 17 22 9 12 1020.8 1020.5 0.0
25/02:00pm 21.2 20.7 14.8 67 3.8 SSW 11 20 6 11 1020.8 1020.5 0.0
25/01:30pm 20.6 18.9 14.7 69 3.5 S 17 28 9 15 1021.2 1020.9 0.0
25/01:00pm 20.3 17.6 14.7 70 3.3 S 22 35 12 19 1021.2 1020.9 0.0
25/12:30pm 20.8 18.9 15.1 70 3.4 S 19 26 10 14 1021.3 1021.0 0.0
25/12:00pm 20.7 18.3 15.3 71 3.2 SSE 22 33 12 18 1021.4 1021.1 0.0
25/11:30am 20.6 19.1 15.2 71 3.2 S 17 26 9 14 1021.7 1021.4 0.0
25/11:00am 19.8 17.6 14.8 73 2.9 S 20 30 11 16 1021.8 1021.5 0.0
25/10:30am 19.8 16.4 14.8 73 2.9 S 26 41 14 22 1021.5 1021.2 0.0
25/10:00am 20.1 18.0 15.1 73 2.9 S 20 30 11 16 1021.3 1021.0 0.0
25/09:30am 20.0 18.0 15.4 75 2.7 S 20 35 11 19 1021.1 1020.8 0.0
25/09:00am 19.7 18.7 15.6 77 2.4 S 15 28 8 15 1021.1 1020.8 0.0
25/08:30am 19.5 17.5 15.6 78 2.3 S 20 32 11 17 1020.9 1020.6 0.0
25/08:00am 19.0 16.6 15.5 80 2.1 S 22 33 12 18 1020.8 1020.5 0.0
25/07:53am 19.0 17.0 15.5 80 2.1 S 20 30 11 16 1020.8 1020.5 0.0
25/07:30am 19.0 17.1 15.7 81 2.0 S 20 35 11 19 1020.6 1020.3 0.0
25/07:00am 19.0 16.8 16.0 83 1.8 S 22 33 12 18 1020.1 1019.8 0.0
25/06:30am 19.0 17.3 16.2 84 1.7 S 20 32 11 17 1019.9 1019.6 0.0
25/06:00am 19.1 17.3 16.1 83 1.8 S 20 30 11 16 1019.5 1019.2 0.0
25/05:30am 19.2 18.0 16.2 83 1.8 SSW 17 24 9 13 1019.4 1019.1 0.0
25/05:00am 19.2 18.1 16.4 84 1.7 SSW 17 28 9 15 1019.3 1019.0 0.0
25/04:30am 19.1 17.5 16.5 85 1.6 SSW 20 33 11 18 1019.2 1018.9 0.0
25/04:27am 19.1 17.5 16.5 85 1.6 SSW 20 33 11 18 1019.2 1018.9 0.0
25/04:00am 19.5 18.5 16.7 84 1.7 S 17 32 9 17 1019.1 1018.8 0.0
25/03:47am 19.5 18.2 16.9 85 1.6 S 19 30 10 16 1019.1 1018.8 0.0
25/03:30am 19.6 18.8 17.0 85 1.6 S 17 28 9 15 1019.3 1019.0 0.0
25/03:00am 20.3 19.9 17.1 82 2.0 S 15 32 8 17 1019.3 1019.0 0.0
25/02:50am 20.3 20.0 17.3 83 1.8 S 15 24 8 13 1019.3 1019.0 0.0
25/02:30am 20.4 19.3 17.2 82 2.0 S 19 28 10 15 1019.3 1019.0 0.0
25/02:00am 20.5 20.3 17.5 83 1.8 S 15 26 8 14 1019.5 1019.2 0.0
25/01:30am 20.8 20.1 17.4 81 2.1 SSW 17 26 9 14 1019.6 1019.3 0.0
25/01:00am 21.6 21.9 17.8 79 2.4 SSW 13 19 7 10 1020.2 1019.9 0.0
25/12:30am 21.6 23.6 18.8 84 1.8 WSW 6 9 3 5 1020.3 1020.0 0.0
25/12:00am 21.6 23.0 18.6 83 1.9 WSW 9 11 5 6 1020.2 1019.9 0.0
 
Date/Time
EDT
Temp
°C
App
Temp
°C
Dew
Point
°C
Rel
Hum
%
Delta-T
°C
Wind Press
QNH
hPa
Press
MSL
hPa
Rain since
9am
mm
Dir  Spd
km/h
Gust
km/h
Spd
kts
Gust
kts
24/11:30pm 22.1 22.4 18.7 81 2.1 S 15 22 8 12 1019.5 1019.2 0.0
24/11:00pm 22.9 23.5 18.7 77 2.7 SSE 13 26 7 14 1019.7 1019.4 0.0
24/10:30pm 22.8 24.2 18.6 77 2.7 SW 9 13 5 7 1020.8 1020.5 0.0
24/10:00pm 22.8 24.7 18.6 77 2.6 S 6 9 3 5 1020.6 1020.3 0.0
24/09:30pm 22.7 24.6 18.5 77 2.6 SSE 6 13 3 7 1020.3 1020.0 0.0
24/09:00pm 22.7 24.1 18.7 78 2.5 SSE 9 13 5 7 1019.8 1019.5 0.0
24/08:30pm 22.5 22.4 18.7 79 2.4 SSE 17 24 9 13 1019.2 1018.9 0.0
24/08:00pm 22.4 22.6 18.6 79 2.4 SSE 15 22 8 12 1019.0 1018.7 0.0
24/07:30pm 22.6 23.3 18.8 79 2.4 SSE 13 19 7 10 1018.8 1018.5 0.0
24/07:00pm 23.0 23.3 18.7 77 2.7 SE 15 20 8 11 1018.9 1018.6 0.0
24/06:30pm 23.6 23.2 18.9 75 3.0 SE 19 24 10 13 1018.6 1018.3 0.0
24/06:00pm 24.6 24.2 18.8 70 3.7 SE 19 28 10 15 1018.2 1017.9 0.0
24/05:30pm 25.2 24.2 18.9 68 4.0 SE 22 28 12 15 1017.9 1017.6 0.0
24/05:00pm 26.7 26.0 18.6 61 5.2 E 20 30 11 16 1017.6 1017.3 0.0
24/04:30pm 27.0 26.7 18.3 59 5.5 E 17 26 9 14 1017.8 1017.5 0.0
24/04:00pm 27.0 27.3 18.8 60 5.3 E 15 22 8 12 1018.1 1017.8 0.0
24/03:30pm 26.7 26.5 18.6 61 5.2 E 17 28 9 15 1018.3 1018.0 0.0
24/03:00pm 26.9 26.4 18.7 60 5.2 ESE 19 24 10 13 1018.7 1018.4 0.0
24/02:30pm 26.5 26.0 18.6 62 5.1 ESE 19 28 10 15 1018.6 1018.3 0.0
24/02:00pm 26.2 26.0 18.6 63 4.8 ESE 17 22 9 12 1019.2 1018.9 0.0
24/01:30pm 26.4 26.3 18.8 63 4.9 ESE 17 24 9 13 1019.6 1019.3 0.0
24/01:00pm 26.1 25.9 18.5 63 4.8 ESE 17 20 9 11 1019.9 1019.6 0.0
24/12:30pm 25.9 26.2 18.8 65 4.5 E 15 22 8 12 1020.3 1020.0 0.0
24/12:00pm 25.8 26.4 18.5 64 4.6 ENE 13 19 7 10 1020.7 1020.4 0.0
24/11:30am 25.9 26.1 18.6 64 4.7 ENE 15 22 8 12 1020.9 1020.6 0.0
24/11:00am 24.8 26.2 18.7 69 3.9 NE 9 15 5 8 1021.1 1020.8 0.0
24/10:30am 24.4 26.2 18.8 71 3.6 E 7 13 4 7 1021.4 1021.1 0.0
24/10:00am 23.9 25.4 18.8 73 3.2 SE 9 15 5 8 1021.4 1021.1 0.0
24/09:30am 23.8 25.3 18.9 74 3.1 SE 9 13 5 7 1021.2 1020.9 0.0
24/09:00am 23.1 24.7 19.1 78 2.5 SE 9 13 5 7 1021.1 1020.8 0.0
24/08:30am 22.6 23.9 19.2 81 2.2 SSE 11 15 6 8 1020.9 1020.6 0.0
24/08:00am 21.7 23.3 19.1 85 1.6 S 9 13 5 7 1020.6 1020.3 0.0
24/07:30am 20.7 22.0 18.5 87 1.4 SSE 9 11 5 6 1020.1 1019.8 0.0
24/07:00am 20.2 21.0 18.1 88 1.3 SSE 11 17 6 9 1019.8 1019.5 0.0
24/06:30am 20.1 21.2 17.9 87 1.4 SSE 9 13 5 7 1019.3 1019.0 0.0
24/06:00am 20.0 20.9 17.6 86 1.5 S 9 13 5 7 1019.0 1018.7 0.0
24/05:30am 20.2 20.3 17.4 84 1.7 SE 13 17 7 9 1018.5 1018.2 0.0
24/05:00am 20.1 19.4 17.3 84 1.7 SE 17 20 9 11 1018.2 1017.9 0.0
24/04:30am 19.9 19.7 17.5 86 1.5 SE 15 19 8 10 1017.9 1017.6 0.0
24/04:00am 19.7 19.8 17.5 87 1.3 SE 13 15 7 8 1018.0 1017.7 0.0
24/03:30am 19.8 20.2 17.2 85 1.6 SSE 11 15 6 8 1017.9 1017.6 0.0
24/03:00am 19.8 20.1 17.0 84 1.7 SSE 11 15 6 8 1017.8 1017.5 0.0
24/02:30am 19.2 20.1 16.2 83 1.8 SE 6 7 3 4 1017.5 1017.2 0.0
24/02:00am 20.2 20.8 16.8 81 2.1 SE 9 11 5 6 1017.6 1017.3 0.0
24/01:30am 20.6 21.8 16.8 79 2.3 SE 6 7 3 4 1017.7 1017.4 0.0
24/01:00am 20.8 21.8 16.8 78 2.4 SE 7 9 4 5 1018.0 1017.7 0.0
24/12:30am 21.6 22.9 17.0 75 2.8 ESE 6 9 3 5 1018.2 1017.9 0.0
24/12:00am 22.0 22.9 16.7 72 3.2 ESE 7 9 4 5 1018.2 1017.9 0.0
 
Date/Time
EDT
Temp
°C
App
Temp
°C
Dew
Point
°C
Rel
Hum
%
Delta-T
°C
Wind Press
QNH
hPa
Press
MSL
hPa
Rain since
9am
mm
Dir  Spd
km/h
Gust
km/h
Spd
kts
Gust
kts
23/11:30pm 22.3 22.9 16.8 71 3.4 E 9 13 5 7 1018.3 1018.0 0.0
23/11:00pm 22.5 22.5 16.3 68 3.8 E 11 15 6 8 1018.5 1018.2 0.0
23/10:30pm 22.9 22.5 16.2 66 4.1 E 13 15 7 8 1018.7 1018.4 0.0
23/10:00pm 23.1 23.0 15.9 64 4.4 E 11 15 6 8 1018.8 1018.5 0.0
23/09:30pm 23.2 22.9 15.5 62 4.6 E 11 15 6 8 1018.6 1018.3 0.0
23/09:00pm 23.9 23.6 15.4 59 5.1 E 11 19 6 10 1018.4 1018.1 0.0
23/08:30pm 24.3 23.6 15.5 58 5.3 E 13 20 7 11 1017.8 1017.5 0.0
23/08:00pm 24.6 24.3 15.5 57 5.5 E 11 15 6 8 1017.5 1017.2 0.0
23/07:30pm 25.3 25.3 16.2 57 5.6 ENE 11 19 6 10 1017.0 1016.7 0.0
23/07:00pm 26.2 25.8 16.2 54 6.1 E 13 20 7 11 1016.8 1016.5 0.0
23/06:30pm 27.1 26.1 16.7 53 6.5 ENE 17 26 9 14 1016.5 1016.2 0.0
23/06:00pm 27.8 26.4 17.0 51 6.8 ENE 20 30 11 16 1016.1 1015.8 0.0
23/05:30pm 28.6 27.1 16.8 48 7.4 ENE 20 26 11 14 1016.1 1015.8 0.0
23/05:00pm 29.6 28.8 17.1 47 7.9 ENE 17 26 9 14 1016.0 1015.7 0.0

Latest Capital City Observations: Canberra | Sydney | Melbourne | Brisbane | Adelaide | Perth | Hobart | Darwin

Other Formats:

Comma delimited format used in spreadsheet applications
http://www.bom.gov.au/fwo/IDN60901/IDN60901.95761.axf

JavaScript Object Notation format (JSON) in row-major order
http://www.bom.gov.au/fwo/IDN60901/IDN60901.95761.json